Time;durP1;ratioP1;P1;durP2;ratioP2;P2;SDS_P1;SDS_P2;PMS_P1;PMS_P2;Temp;Humidity;BMP_temperature;BMP_pressure;BME280_temperature;BME280_humidity;BME280_pressure;Samples;Min_cycle;Max_cycle;Signal;HPM_P1;HPM_P2
2023/08/20 00:01:04;;;;;;;14.15;2.35;;;;;;;14.57;100.00;100844.88;4860849;29;20053;-92
2023/08/20 00:03:30;;;;;;;13.52;2.70;;;;;;;14.53;100.00;100847.69;4862894;29;20381;-93
2023/08/20 00:05:56;;;;;;;12.68;2.42;;;;;;;14.50;100.00;100847.84;4861802;29;20033;-92
2023/08/20 00:08:21;;;;;;;12.95;2.70;;;;;;;14.46;100.00;100851.59;4862072;29;20041;-92
2023/08/20 00:10:46;;;;;;;18.75;3.08;;;;;;;14.51;100.00;100857.31;4862376;29;20033;-95
2023/08/20 00:13:12;;;;;;;14.98;3.97;;;;;;;14.65;100.00;100860.75;4858691;29;20092;-93
2023/08/20 00:15:37;;;;;;;18.42;2.90;;;;;;;14.68;100.00;100860.53;4860610;29;20036;-93
2023/08/20 00:18:03;;;;;;;18.92;3.83;;;;;;;14.72;100.00;100872.41;4862000;29;20409;-93
2023/08/20 00:20:29;;;;;;;20.77;3.05;;;;;;;14.61;100.00;100869.72;4859711;29;20022;-92
2023/08/20 00:22:55;;;;;;;29.15;4.40;;;;;;;14.68;100.00;100870.94;4860670;29;20111;-92
2023/08/20 00:25:20;;;;;;;16.98;3.53;;;;;;;14.67;100.00;100875.31;4862155;29;20039;-92
2023/08/20 00:27:46;;;;;;;20.98;4.63;;;;;;;14.64;100.00;100877.28;4861888;29;20033;-93
2023/08/20 00:30:12;;;;;;;17.40;3.17;;;;;;;14.50;100.00;100873.81;4858679;29;20030;-93
2023/08/20 00:32:38;;;;;;;11.02;3.22;;;;;;;14.63;100.00;100867.81;4866448;29;20563;-93
2023/08/20 00:35:04;;;;;;;9.60;2.08;;;;;;;14.44;100.00;100865.63;4860768;29;20026;-93
2023/08/20 00:37:30;;;;;;;10.80;2.70;;;;;;;14.45;100.00;100864.66;4861792;29;20029;-94
2023/08/20 00:39:57;;;;;;;15.63;2.53;;;;;;;14.30;100.00;100871.72;4860579;29;20025;-94
2023/08/20 00:42:25;;;;;;;10.88;2.05;;;;;;;14.13;100.00;100871.06;4861200;29;20048;-92
2023/08/20 00:44:50;;;;;;;12.32;2.85;;;;;;;14.23;100.00;100873.06;4857404;29;20140;-93
2023/08/20 00:47:17;;;;;;;14.07;3.08;;;;;;;14.21;100.00;100873.13;4875862;29;20540;-93
2023/08/20 00:49:42;;;;;;;7.80;1.92;;;;;;;14.18;100.00;100878.53;4861919;29;20381;-93
2023/08/20 00:52:13;;;;;;;17.17;3.03;;;;;;;14.17;100.00;100881.22;4861533;29;20483;-93
2023/08/20 00:54:45;;;;;;;13.20;2.67;;;;;;;14.12;100.00;100878.97;4860378;29;20060;-93
2023/08/20 00:57:10;;;;;;;9.15;2.50;;;;;;;14.09;100.00;100874.81;4859482;29;20033;-93
2023/08/20 00:59:36;;;;;;;14.80;4.35;;;;;;;14.15;100.00;100883.13;4860328;29;20048;-93
2023/08/20 01:02:02;;;;;;;10.95;2.15;;;;;;;14.07;100.00;100889.63;4861048;29;20396;-93
2023/08/20 01:04:29;;;;;;;13.15;2.40;;;;;;;14.10;100.00;100886.84;4859917;29;20034;-93
2023/08/20 01:07:00;;;;;;;10.48;2.55;;;;;;;14.10;100.00;100886.84;4859631;29;20030;-94
2023/08/20 01:09:50;;;;;;;13.75;2.85;;;;;;;14.07;100.00;100887.03;4859369;29;20035;-93
2023/08/20 01:12:17;;;;;;;11.82;2.33;;;;;;;14.11;100.00;100885.88;4859197;29;20037;-93
2023/08/20 01:14:42;;;;;;;8.90;1.90;;;;;;;14.05;100.00;100882.88;4855849;29;20029;-94
2023/08/20 01:17:07;;;;;;;7.95;2.45;;;;;;;14.00;100.00;100887.53;4842644;29;20046;-92
2023/08/20 01:19:34;;;;;;;5.72;2.13;;;;;;;13.97;100.00;100885.13;4858866;29;20045;-93
2023/08/20 01:22:36;;;;;;;11.30;2.63;;;;;;;14.00;100.00;100885.78;4860820;29;20105;-93
2023/08/20 01:25:23;;;;;;;10.70;1.98;;;;;;;13.93;100.00;100889.69;4860527;29;20480;-94
2023/08/20 01:28:25;;;;;;;11.60;2.35;;;;;;;13.95;100.00;100882.66;4860349;29;20060;-94
2023/08/20 01:30:52;;;;;;;11.52;2.30;;;;;;;13.79;100.00;100887.16;4857923;29;20034;-93
2023/08/20 01:33:19;;;;;;;8.00;1.40;;;;;;;13.67;100.00;100880.97;4859072;29;20030;-93
2023/08/20 01:35:44;;;;;;;8.18;1.67;;;;;;;13.67;100.00;100886.97;4860630;29;20029;-93
2023/08/20 01:38:09;;;;;;;11.18;2.50;;;;;;;13.73;100.00;100895.31;4859532;29;20037;-92
2023/08/20 01:40:35;;;;;;;12.85;2.35;;;;;;;13.55;100.00;100890.34;4860465;29;20462;-93
2023/08/20 01:43:00;;;;;;;6.88;1.58;;;;;;;13.53;100.00;100886.19;4858543;29;20037;-93
2023/08/20 01:45:26;;;;;;;9.40;3.30;;;;;;;13.62;100.00;100888.22;4859300;29;20099;-94
2023/08/20 01:47:51;;;;;;;10.38;2.20;;;;;;;13.66;100.00;100887.91;4860040;29;20032;-93
2023/08/20 01:50:17;;;;;;;8.40;2.55;;;;;;;13.63;100.00;100885.53;4859135;29;20116;-93
2023/08/20 01:52:42;;;;;;;12.23;1.92;;;;;;;13.68;100.00;100887.84;4860205;29;20116;-94
2023/08/20 01:55:08;;;;;;;12.60;2.85;;;;;;;13.76;100.00;100887.34;4862175;29;20438;-93
2023/08/20 01:57:33;;;;;;;8.88;2.10;;;;;;;13.69;100.00;100887.72;4859687;29;20032;-93
2023/08/20 01:59:59;;;;;;;7.07;2.08;;;;;;;13.57;100.00;100895.44;4859021;29;20037;-94
2023/08/20 02:02:25;;;;;;;8.80;2.17;;;;;;;13.64;100.00;100900.16;4849332;29;20480;-93
2023/08/20 02:04:50;;;;;;;13.35;2.58;;;;;;;13.72;100.00;100901.44;4858771;29;20026;-93
2023/08/20 02:07:16;;;;;;;12.30;2.50;;;;;;;13.69;100.00;100897.28;4860179;29;20108;-93
2023/08/20 02:09:41;;;;;;;8.65;2.75;;;;;;;13.72;100.00;100901.44;4860117;29;20033;-93
2023/08/20 02:12:07;;;;;;;16.60;2.67;;;;;;;13.86;100.00;100898.78;4858079;29;20388;-92
2023/08/20 02:14:34;;;;;;;12.32;2.53;;;;;;;13.84;100.00;100900.66;4858291;29;20037;-92
2023/08/20 02:17:03;;;;;;;11.45;2.05;;;;;;;13.85;100.00;100912.69;4855569;29;20033;-94
2023/08/20 02:19:29;;;;;;;11.48;2.33;;;;;;;13.87;100.00;100911.66;4856038;29;20116;-94
2023/08/20 02:21:54;;;;;;;14.75;2.95;;;;;;;13.95;100.00;100911.19;4871447;29;20120;-93
2023/08/20 02:24:20;;;;;;;10.00;2.67;;;;;;;13.95;100.00;100903.41;4859686;29;20036;-94
2023/08/20 02:26:45;;;;;;;11.60;2.42;;;;;;;14.03;100.00;100916.72;4857996;29;20048;-93
2023/08/20 02:29:11;;;;;;;14.82;2.53;;;;;;;14.06;100.00;100911.31;4859430;29;20272;-93
2023/08/20 02:31:37;;;;;;;15.65;2.30;;;;;;;13.97;100.00;100916.25;4859162;29;20033;-94
2023/08/20 02:34:02;;;;;;;13.02;2.03;;;;;;;14.03;100.00;100911.53;4856676;29;20037;-93
2023/08/20 02:36:27;;;;;;;7.63;1.80;;;;;;;13.93;100.00;100915.63;4858140;29;20061;-94
2023/08/20 02:38:53;;;;;;;16.02;3.30;;;;;;;13.88;100.00;100917.69;4858540;29;20033;-93
2023/08/20 02:41:18;;;;;;;15.40;3.65;;;;;;;13.78;100.00;100916.63;4857975;29;20153;-94
2023/08/20 02:43:44;;;;;;;8.85;2.40;;;;;;;13.83;100.00;100919.75;4858534;29;20037;-94
2023/08/20 02:46:10;;;;;;;9.82;2.35;;;;;;;13.87;100.00;100926.41;4854779;29;20417;-94
2023/08/20 02:48:35;;;;;;;7.97;2.53;;;;;;;13.91;100.00;100917.50;4848265;29;20049;-93
2023/08/20 02:51:01;;;;;;;11.57;1.95;;;;;;;13.96;100.00;100910.25;4859502;29;20034;-93
2023/08/20 02:53:26;;;;;;;9.75;2.33;;;;;;;13.93;100.00;100913.03;4857289;29;20040;-93
2023/08/20 02:55:52;;;;;;;13.02;2.47;;;;;;;13.79;100.00;100908.72;4857793;29;20041;-94
2023/08/20 02:58:17;;;;;;;14.32;2.53;;;;;;;13.84;100.00;100914.44;4866727;29;20040;-92
2023/08/20 03:00:44;;;;;;;9.40;2.28;;;;;;;13.84;100.00;100913.63;4867917;29;20390;-94
2023/08/20 03:03:10;;;;;;;13.95;3.50;;;;;;;13.83;100.00;100910.22;4864279;29;20112;-96
2023/08/20 03:05:36;;;;;;;12.55;2.60;;;;;;;13.91;100.00;100920.09;4865708;29;20121;-94
2023/08/20 03:08:03;;;;;;;7.35;1.75;;;;;;;13.88;100.00;100917.69;4864460;29;20120;-93
2023/08/20 03:10:30;;;;;;;14.25;2.60;;;;;;;13.88;100.00;100923.72;4865228;29;20033;-94
2023/08/20 03:12:55;;;;;;;13.02;2.70;;;;;;;13.80;100.00;100914.75;4865873;29;20508;-95
2023/08/20 03:15:20;;;;;;;9.43;2.30;;;;;;;13.81;100.00;100925.03;4863394;29;20037;-94
2023/08/20 03:17:46;;;;;;;6.53;2.95;;;;;;;13.80;100.00;100920.78;4865610;29;20481;-93
2023/08/20 03:20:11;;;;;;;8.57;2.40;;;;;;;13.83;100.00;100930.13;4865886;29;20022;-93
2023/08/20 03:22:38;;;;;;;13.82;3.78;;;;;;;13.92;100.00;100924.34;4866151;29;20037;-93
2023/08/20 03:25:04;;;;;;;11.13;2.70;;;;;;;14.01;100.00;100928.13;4865483;29;20173;-94
2023/08/20 03:27:29;;;;;;;8.02;2.47;;;;;;;13.99;100.00;100927.38;4864374;29;20034;-92
2023/08/20 03:29:55;;;;;;;16.75;3.58;;;;;;;13.84;100.00;100922.25;4864885;29;20081;-94
2023/08/20 03:32:20;;;;;;;10.23;2.47;;;;;;;13.82;100.00;100921.50;4864352;29;20118;-95
2023/08/20 03:34:46;;;;;;;9.02;1.92;;;;;;;13.83;100.00;100919.75;4861019;29;20468;-93
2023/08/20 03:37:11;;;;;;;6.90;2.20;;;;;;;13.81;100.00;100919.00;4845970;29;20030;-94
2023/08/20 03:39:37;;;;;;;13.68;3.13;;;;;;;13.80;100.00;100925.13;4847690;29;20034;-93
2023/08/20 03:42:02;;;;;;;8.80;2.42;;;;;;;13.68;100.00;100922.38;4845806;29;20117;-93
2023/08/20 03:44:29;;;;;;;12.52;2.47;;;;;;;13.64;100.00;100931.28;4859917;29;20481;-94
2023/08/20 03:46:54;;;;;;;11.77;2.25;;;;;;;13.72;100.00;100924.78;4864936;29;20025;-94
2023/08/20 03:49:19;;;;;;;25.25;2.90;;;;;;;13.74;100.00;100930.72;4865394;29;20094;-93
2023/08/20 03:51:45;;;;;;;13.80;3.03;;;;;;;13.63;100.00;100933.97;4865331;29;20034;-92
2023/08/20 03:54:10;;;;;;;9.10;2.58;;;;;;;13.67;100.00;100935.44;4864867;29;20060;-94
2023/08/20 03:56:36;;;;;;;5.57;1.92;;;;;;;13.66;100.00;100934.63;4865506;29;20066;-94
2023/08/20 03:59:01;;;;;;;15.65;2.70;;;;;;;13.65;100.00;100926.91;4864363;29;20041;-93
2023/08/20 04:01:27;;;;;;;11.38;2.50;;;;;;;13.62;100.00;100933.13;4865669;29;20076;-94
2023/08/20 04:03:52;;;;;;;15.73;2.58;;;;;;;13.59;100.00;100941.09;4865530;29;20094;-94
2023/08/20 04:06:17;;;;;;;9.77;2.67;;;;;;;13.56;100.00;100933.53;4865508;29;20025;-94
2023/08/20 04:08:43;;;;;;;14.02;2.78;;;;;;;13.49;100.00;100940.03;4864937;29;20143;-94
2023/08/20 04:11:08;;;;;;;7.35;2.45;;;;;;;13.54;100.00;100945.75;4861599;29;20029;-93
2023/08/20 04:13:34;;;;;;;8.88;2.60;;;;;;;13.56;100.00;100943.03;4857259;29;20098;-94
2023/08/20 04:15:59;;;;;;;8.05;1.80;;;;;;;13.61;100.00;100941.84;4842586;29;20030;-94
2023/08/20 04:18:25;;;;;;;12.27;2.58;;;;;;;13.58;100.00;100938.59;4847346;29;20120;-93
2023/08/20 04:20:52;;;;;;;6.78;2.40;;;;;;;13.58;100.00;100949.84;4862324;29;20029;-93
2023/08/20 04:23:18;;;;;;;7.65;2.90;;;;;;;13.60;100.00;100945.34;4860524;29;20302;-93
2023/08/20 04:25:44;;;;;;;9.25;2.42;;;;;;;13.48;100.00;100946.13;4860990;29;20282;-93
2023/08/20 04:28:13;;;;;;;12.35;3.40;;;;;;;13.54;100.00;100956.13;4859510;29;20026;-93
2023/08/20 04:30:38;;;;;;;16.77;2.53;;;;;;;13.46;100.00;100950.56;4861897;29;20926;-93
2023/08/20 04:33:04;;;;;;;7.32;2.30;;;;;;;13.48;100.00;100959.94;4876501;29;20049;-94
2023/08/20 04:35:30;;;;;;;6.93;2.90;;;;;;;13.59;100.00;100958.44;4862116;29;20108;-94
2023/08/20 04:37:55;;;;;;;10.95;3.50;;;;;;;13.59;100.00;100959.25;4860928;29;20028;-93
2023/08/20 04:40:21;;;;;;;16.52;4.25;;;;;;;13.67;100.00;100956.19;4862120;29;20392;-94
2023/08/20 04:42:46;;;;;;;10.27;2.63;;;;;;;13.64;100.00;100962.41;4858937;29;20044;-94
2023/08/20 04:45:12;;;;;;;8.60;2.15;;;;;;;13.64;100.00;100965.00;4876024;29;20025;-93
2023/08/20 04:47:38;;;;;;;9.10;2.38;;;;;;;13.64;100.00;100969.34;4861907;29;20602;-93
2023/08/20 04:50:06;;;;;;;18.00;3.67;;;;;;;13.68;100.00;100969.09;4876094;29;20496;-93
2023/08/20 04:52:33;;;;;;;11.60;3.30;;;;;;;13.75;100.00;100974.69;4861851;29;20034;-93
2023/08/20 04:54:58;;;;;;;13.50;3.38;;;;;;;13.78;100.00;100971.09;4860767;29;20030;-93
2023/08/20 04:57:24;;;;;;;32.28;5.05;;;;;;;13.86;100.00;100987.03;4860415;29;20077;-93
2023/08/20 04:59:49;;;;;;;17.70;3.80;;;;;;;13.85;100.00;100985.34;4861284;29;20045;-93
2023/08/20 05:02:14;;;;;;;10.02;3.20;;;;;;;13.84;100.00;100984.50;4861622;29;20136;-93
2023/08/20 05:04:40;;;;;;;8.52;3.15;;;;;;;13.83;100.00;100982.03;4861550;29;20070;-92
2023/08/20 05:07:06;;;;;;;14.85;4.35;;;;;;;13.87;100.00;100989.50;4860043;29;20037;-94
2023/08/20 05:09:32;;;;;;;19.27;3.72;;;;;;;13.83;100.00;100988.03;4861041;29;20038;-93
2023/08/20 05:11:58;;;;;;;15.40;3.63;;;;;;;13.90;100.00;100998.88;4859069;29;20564;-93
2023/08/20 05:14:23;;;;;;;17.27;4.05;;;;;;;13.94;100.00;101000.34;4858757;29;20045;-92
2023/08/20 05:16:48;;;;;;;19.20;3.60;;;;;;;13.98;100.00;101007.00;4860217;29;20033;-92
2023/08/20 05:19:14;;;;;;;20.30;3.97;;;;;;;14.08;100.00;101008.09;4861489;29;20108;-91
2023/08/20 05:21:39;;;;;;;14.23;3.42;;;;;;;14.10;100.00;101006.25;4861599;29;20029;-92
2023/08/20 05:24:05;;;;;;;24.90;5.57;;;;;;;14.18;100.00;101010.13;4861029;29;20025;-93
2023/08/20 05:26:30;;;;;;;19.38;4.15;;;;;;;14.18;100.00;101010.13;4859897;29;20083;-93
2023/08/20 05:28:55;;;;;;;36.47;5.70;;;;;;;14.21;100.00;101004.72;4874155;29;20485;-92
2023/08/20 05:31:21;;;;;;;14.63;3.45;;;;;;;14.25;100.00;101014.00;4860992;29;20036;-92
2023/08/20 05:33:46;;;;;;;18.25;4.05;;;;;;;14.28;100.00;101009.41;4860938;29;20042;-92
2023/08/20 05:36:12;;;;;;;14.85;3.83;;;;;;;14.31;100.00;101011.00;4860880;29;20055;-93
2023/08/20 05:38:37;;;;;;;14.82;3.00;;;;;;;14.34;100.00;101023.78;4860692;29;20112;-93
2023/08/20 05:41:02;;;;;;;16.17;3.92;;;;;;;14.35;100.00;101022.84;4860623;29;20029;-93
2023/08/20 05:43:28;;;;;;;17.77;3.90;;;;;;;14.42;100.00;101020.69;4856917;29;20076;-93
2023/08/20 05:45:53;;;;;;;19.38;4.28;;;;;;;14.44;100.00;101021.44;4860650;29;20469;-93
2023/08/20 05:48:18;;;;;;;23.55;4.07;;;;;;;14.49;100.00;101015.00;4860709;29;20108;-92
2023/08/20 05:50:44;;;;;;;18.80;3.60;;;;;;;14.58;100.00;101025.75;4860668;29;20029;-94
2023/08/20 05:53:09;;;;;;;22.58;4.35;;;;;;;14.62;100.00;101022.03;4874316;29;20124;-91
2023/08/20 05:55:35;;;;;;;19.27;4.22;;;;;;;14.68;100.00;101012.09;4859220;29;20029;-94
2023/08/20 05:58:00;;;;;;;11.75;3.83;;;;;;;14.72;100.00;101023.94;4851451;29;20033;-93
2023/08/20 06:00:26;;;;;;;23.48;4.88;;;;;;;14.79;100.00;101024.38;4842141;29;20026;-93
2023/08/20 06:02:51;;;;;;;9.80;2.92;;;;;;;14.83;100.00;101027.59;4846068;29;20041;-93
2023/08/20 06:05:16;;;;;;;16.63;3.45;;;;;;;14.88;100.00;101035.94;4860331;29;20049;-93
2023/08/20 06:07:42;;;;;;;14.63;3.88;;;;;;;14.89;100.00;101029.78;4860468;29;20037;-94
2023/08/20 06:10:08;;;;;;;12.98;3.20;;;;;;;14.92;100.00;101030.44;4860383;29;20034;-94
2023/08/20 06:12:34;;;;;;;11.60;3.13;;;;;;;14.96;100.00;101031.06;4873679;29;20461;-93
2023/08/20 06:14:59;;;;;;;10.30;2.55;;;;;;;14.96;100.00;101031.88;4859072;29;20476;-94
2023/08/20 06:17:25;;;;;;;11.02;2.90;;;;;;;14.99;100.00;101036.03;4860106;29;20120;-94
2023/08/20 06:19:50;;;;;;;11.65;2.95;;;;;;;15.01;100.00;101038.53;4859880;29;20094;-94
2023/08/20 06:22:15;;;;;;;11.80;2.97;;;;;;;15.08;100.00;101039.81;4860051;29;20029;-93
2023/08/20 06:24:41;;;;;;;19.48;3.38;;;;;;;15.09;100.00;101036.25;4860312;29;20038;-94
2023/08/20 06:27:06;;;;;;;12.38;2.70;;;;;;;15.12;100.00;101049.06;4873778;29;20500;-94
2023/08/20 06:29:31;;;;;;;13.75;2.80;;;;;;;15.24;100.00;101043.06;4855470;29;20030;-93
2023/08/20 06:31:57;;;;;;;12.00;3.45;;;;;;;15.28;100.00;101052.28;4841706;29;20385;-93
2023/08/20 06:34:22;;;;;;;16.92;3.40;;;;;;;15.28;100.00;101047.09;4840878;29;20038;-93
2023/08/20 06:36:49;;;;;;;15.18;3.42;;;;;;;15.31;100.00;101052.06;4856006;29;20398;-93
2023/08/20 06:39:15;;;;;;;15.77;3.17;;;;;;;15.40;100.00;101043.66;4855126;29;20044;-93
2023/08/20 06:41:41;;;;;;;18.63;3.47;;;;;;;15.40;100.00;101045.44;4871494;29;20112;-94
2023/08/20 06:44:06;;;;;;;13.32;3.40;;;;;;;15.44;100.00;101062.50;4857677;29;20026;-94
2023/08/20 06:46:32;;;;;;;14.13;2.83;;;;;;;15.47;100.00;101048.44;4858982;29;20032;-94
2023/08/20 06:48:57;;;;;;;11.15;2.65;;;;;;;15.61;100.00;101048.34;4857588;29;20029;-94
2023/08/20 06:51:23;;;;;;;13.70;2.80;;;;;;;15.68;100.00;101062.59;4873269;29;20028;-95
2023/08/20 06:53:49;;;;;;;14.65;3.20;;;;;;;15.71;100.00;101051.19;4857366;29;20389;-95
2023/08/20 06:56:14;;;;;;;11.35;2.80;;;;;;;15.75;100.00;101066.47;4858068;29;20024;-93
2023/08/20 06:58:41;;;;;;;11.57;3.10;;;;;;;15.83;100.00;101058.97;4857161;29;20025;-92
2023/08/20 07:01:07;;;;;;;13.85;3.50;;;;;;;15.90;100.00;101056.75;4854239;29;20033;-94
2023/08/20 07:03:38;;;;;;;14.05;2.70;;;;;;;15.94;100.00;101057.38;4858591;29;20029;-95
2023/08/20 07:06:03;;;;;;;17.70;3.50;;;;;;;15.99;100.00;101069.13;4858290;29;20022;-93
2023/08/20 07:08:29;;;;;;;15.60;3.42;;;;;;;15.94;100.00;101066.00;4856663;29;20148;-94
2023/08/20 07:10:54;;;;;;;18.95;3.25;;;;;;;16.13;100.00;101069.94;4857140;29;20112;-96
2023/08/20 07:13:20;;;;;;;16.10;2.88;;;;;;;16.35;100.00;101071.84;4857879;29;20049;-95
2023/08/20 07:15:46;;;;;;;13.07;2.45;;;;;;;16.50;100.00;101077.72;4861092;29;20038;-96
2023/08/20 07:18:13;;;;;;;12.30;3.33;;;;;;;16.55;100.00;101071.22;4856600;29;20039;-96
2023/08/20 07:20:39;;;;;;;11.25;2.60;;;;;;;16.71;100.00;101077.94;4856655;29;20056;-96
2023/08/20 07:23:04;;;;;;;10.95;2.33;;;;;;;16.86;100.00;101079.47;4858493;29;20029;-96
2023/08/20 07:25:30;;;;;;;17.20;2.75;;;;;;;16.89;100.00;101071.41;4892140;29;20033;-96
2023/08/20 07:27:59;;;;;;;13.10;2.75;;;;;;;17.28;100.00;101085.84;4855791;29;20082;-94
2023/08/20 07:30:25;;;;;;;10.35;2.90;;;;;;;17.35;100.00;101088.81;4858211;29;20026;-96
2023/08/20 07:32:51;;;;;;;9.10;2.08;;;;;;;18.37;100.00;101084.44;4857880;29;20037;-96
2023/08/20 07:35:17;;;;;;;9.45;2.50;;;;;;;17.83;100.00;101086.06;4857391;29;20045;-96
2023/08/20 07:37:42;;;;;;;14.50;2.65;;;;;;;17.67;100.00;101095.97;4856605;29;20492;-96
2023/08/20 07:40:08;;;;;;;9.57;2.15;;;;;;;17.58;100.00;101096.69;4857656;29;20393;-96
2023/08/20 07:42:34;;;;;;;9.25;1.92;;;;;;;17.65;100.00;101103.09;4842570;29;20164;-96
2023/08/20 07:44:59;;;;;;;13.80;1.95;;;;;;;17.67;100.00;101107.25;4857756;29;20104;-96
2023/08/20 07:47:25;;;;;;;12.50;3.08;;;;;;;17.61;100.00;101106.91;4860094;29;20033;-96
2023/08/20 07:49:50;;;;;;;8.35;1.77;;;;;;;17.65;100.00;101108.31;4859723;29;20097;-96
2023/08/20 07:52:15;;;;;;;8.63;2.10;;;;;;;17.82;100.00;101110.50;4887868;29;20076;-96
2023/08/20 07:54:42;;;;;;;6.15;1.60;;;;;;;18.33;100.00;101103.91;4859869;29;20445;-96
2023/08/20 07:57:07;;;;;;;10.80;1.92;;;;;;;19.49;100.00;101104.03;4859910;29;20056;-94
2023/08/20 07:59:33;;;;;;;10.80;2.47;;;;;;;19.05;100.00;101116.44;4860737;29;20061;-95
2023/08/20 08:01:58;;;;;;;10.00;1.63;;;;;;;19.19;100.00;101108.25;4857024;29;20480;-94
2023/08/20 08:04:23;;;;;;;10.20;2.45;;;;;;;19.62;100.00;101106.44;4859729;29;20045;-93
2023/08/20 08:06:49;;;;;;;10.20;2.30;;;;;;;20.25;97.56;101116.75;4861152;29;20022;-93
2023/08/20 08:09:28;;;;;;;11.00;2.45;;;;;;;19.85;100.00;101109.75;4862497;29;20037;-96
2023/08/20 08:11:54;;;;;;;9.90;1.67;;;;;;;21.00;89.97;101106.66;4859744;29;20053;-96
2023/08/20 08:14:36;;;;;;;10.52;2.13;;;;;;;20.80;86.66;101114.53;4864865;29;20026;-96
2023/08/20 08:17:02;;;;;;;7.60;1.63;;;;;;;20.53;90.68;101120.38;4855147;29;20030;-95
2023/08/20 08:22:02;;;;;;;8.10;1.50;;;;;;;21.59;87.63;101129.22;5002675;23;20057;-95
2023/08/20 08:24:28;;;;;;;10.57;2.53;;;;;;;20.89;85.11;101137.28;4899568;29;20432;-93
2023/08/20 08:26:53;;;;;;;10.57;1.30;;;;;;;20.22;89.16;101135.38;4897058;29;20052;-96
2023/08/20 08:29:19;;;;;;;6.88;1.48;;;;;;;20.13;91.66;101133.56;4891960;29;20041;-96
2023/08/20 08:31:47;;;;;;;7.60;1.35;;;;;;;20.12;91.19;101131.88;4881320;29;20025;-96
2023/08/20 08:34:14;;;;;;;11.13;1.67;;;;;;;20.87;89.60;101126.13;4886713;29;20041;-96
2023/08/20 08:36:39;;;;;;;14.48;2.42;;;;;;;20.91;87.34;101134.53;4888065;29;20543;-96
2023/08/20 08:39:05;;;;;;;7.25;1.48;;;;;;;22.12;75.43;101146.97;4896610;29;20020;-95
2023/08/20 08:41:33;;;;;;;8.77;1.95;;;;;;;22.97;73.17;101137.03;4897124;29;20080;-94
2023/08/20 08:46:38;;;;;;;8.10;1.58;;;;;;;24.50;65.57;101146.13;4913560;23;20389;-95
2023/08/20 08:49:04;;;;;;;9.23;1.40;;;;;;;24.61;61.79;101137.91;4891647;29;20052;-96
2023/08/20 08:51:31;;;;;;;8.98;1.88;;;;;;;24.67;61.35;101139.06;4895713;29;20136;-96
2023/08/20 08:53:58;;;;;;;6.28;1.55;;;;;;;24.68;59.58;101135.44;4900632;29;20032;-96
2023/08/20 08:56:25;;;;;;;9.80;1.58;;;;;;;25.07;60.58;101132.13;4899522;29;20136;-96
2023/08/20 08:58:50;;;;;;;6.13;1.42;;;;;;;25.75;57.78;101144.09;4884491;29;20433;-95
2023/08/20 09:01:16;;;;;;;11.27;2.42;;;;;;;24.97;57.90;101143.69;4884591;29;20060;-95
2023/08/20 09:03:41;;;;;;;6.22;0.98;;;;;;;24.38;59.49;101148.19;4889455;29;20468;-96
2023/08/20 09:06:13;;;;;;;7.20;1.33;;;;;;;23.83;62.08;101146.84;4907390;29;20047;-95
2023/08/20 09:08:38;;;;;;;;;;;;;;;23.40;62.87;101164.34;5003042;23;20147;-96
2023/08/20 09:11:04;;;;;;;6.18;1.13;;;;;;;23.27;64.23;101159.50;4886051;29;20276;-96
2023/08/20 09:13:44;;;;;;;6.22;1.02;;;;;;;23.20;65.72;101163.72;4878805;29;20037;-96
2023/08/20 09:16:12;;;;;;;7.40;0.88;;;;;;;23.35;65.44;101156.09;4863943;29;20053;-96
2023/08/20 09:21:13;;;;;;;6.50;1.20;;;;;;;23.87;63.51;101156.13;4862646;29;20060;-96
2023/08/20 09:23:39;;;;;;;5.75;0.80;;;;;;;23.83;61.90;101152.13;4858651;29;20034;-94
2023/08/20 09:26:06;;;;;;;6.90;0.95;;;;;;;23.26;63.04;101151.75;4842174;29;20026;-96
2023/08/20 09:28:44;;;;;;;6.30;1.15;;;;;;;24.23;61.77;101160.38;4848082;29;20033;-96
2023/08/20 09:31:15;;;;;;;6.80;0.90;;;;;;;24.56;60.99;101156.03;4839660;29;20026;-95
2023/08/20 09:33:54;;;;;;;9.80;1.10;;;;;;;24.16;59.36;101164.63;4855162;29;20537;-96
2023/08/20 09:36:30;;;;;;;6.07;0.98;;;;;;;24.02;60.50;101163.41;4861472;29;20034;-95
2023/08/20 09:38:56;;;;;;;5.45;1.30;;;;;;;23.99;61.04;101158.44;4858355;29;20026;-96
2023/08/20 09:41:23;;;;;;;10.07;1.55;;;;;;;23.87;61.87;101150.00;4837267;29;20099;-93
2023/08/20 09:43:48;;;;;;;4.60;0.90;;;;;;;23.71;61.72;101162.09;4852666;29;20033;-94
2023/08/20 09:46:16;;;;;;;6.18;1.05;;;;;;;23.79;59.83;101145.50;4840091;29;20057;-92
2023/08/20 09:48:48;;;;;;;5.85;1.10;;;;;;;23.76;61.78;101150.28;4838691;29;20317;-93
2023/08/20 09:51:19;;;;;;;9.73;1.52;;;;;;;24.00;60.15;101149.56;4861144;29;20057;-93
2023/08/20 09:53:50;;;;;;;4.97;1.00;;;;;;;24.17;59.99;101153.09;4839595;29;20029;-94
2023/08/20 09:56:31;;;;;;;11.70;2.67;;;;;;;24.10;58.97;101145.81;4837570;29;20263;-94
2023/08/20 09:59:00;;;;;;;8.32;1.25;;;;;;;25.04;56.73;101135.91;4893109;23;20112;-96
2023/08/20 10:01:26;;;;;;;7.57;1.40;;;;;;;25.43;56.50;101137.88;4893458;29;20383;-94
2023/08/20 10:03:52;;;;;;;5.95;0.90;;;;;;;24.92;55.58;101134.59;4892237;29;20029;-96
2023/08/20 10:06:18;;;;;;;5.70;0.90;;;;;;;24.69;56.16;101143.19;4892029;29;20025;-95
2023/08/20 10:08:46;;;;;;;6.72;0.80;;;;;;;24.26;57.23;101139.78;4891530;29;20025;-94
2023/08/20 10:11:12;;;;;;;5.75;1.65;;;;;;;23.86;58.41;101133.34;4891968;29;20032;-95
2023/08/20 10:13:38;;;;;;;4.85;0.80;;;;;;;24.23;57.41;101139.25;4892208;29;20411;-95
2023/08/20 10:16:03;;;;;;;6.70;1.00;;;;;;;25.08;56.59;101131.97;4895192;29;20496;-94
2023/08/20 10:18:28;;;;;;;10.75;2.15;;;;;;;25.48;55.91;101125.00;4894154;29;20104;-95
2023/08/20 10:20:57;;;;;;;3.90;0.57;;;;;;;25.08;55.32;101133.78;4894211;29;20077;-95
2023/08/20 10:23:23;;;;;;;3.70;0.75;;;;;;;24.74;56.35;101125.03;4895545;29;20120;-95
2023/08/20 10:25:48;;;;;;;4.32;1.25;;;;;;;24.70;56.51;101121.09;4926662;29;20108;-93
2023/08/20 10:28:20;;;;;;;7.13;1.00;;;;;;;24.41;57.66;101123.31;4895646;29;20546;-94
2023/08/20 10:31:12;;;;;;;4.93;1.00;;;;;;;25.08;58.08;101118.75;4894569;29;20084;-93
2023/08/20 10:33:49;;;;;;;6.07;0.90;;;;;;;25.45;54.73;101120.03;4900613;29;20028;-95
2023/08/20 10:36:26;;;;;;;5.78;0.93;;;;;;;25.54;53.98;101120.88;4894172;29;20033;-95
2023/08/20 10:38:55;;;;;;;6.10;0.88;;;;;;;24.65;54.02;101120.72;4896225;29;20028;-95
2023/08/20 10:41:25;;;;;;;5.55;1.00;;;;;;;24.50;57.27;101125.81;4906520;29;20047;-96
2023/08/20 10:43:52;;;;;;;4.68;1.15;;;;;;;25.32;55.05;101120.56;4908908;29;20052;-95
2023/08/20 10:46:25;;;;;;;4.80;0.88;;;;;;;25.61;52.96;101127.13;4892709;29;20044;-94
2023/08/20 10:48:52;;;;;;;3.30;0.90;;;;;;;25.24;54.63;101127.69;4916521;29;20099;-96
2023/08/20 10:51:24;;;;;;;3.92;1.27;;;;;;;25.07;54.47;101132.97;4898128;29;20048;-95
2023/08/20 10:54:10;;;;;;;2.70;0.90;;;;;;;25.17;55.20;101133.66;4926795;29;20510;-96
2023/08/20 10:56:47;;;;;;;3.75;0.88;;;;;;;24.99;55.04;101132.94;4893299;29;20040;-96
2023/08/20 10:59:21;;;;;;;5.18;0.80;;;;;;;25.32;53.85;101135.63;4897688;29;20038;-95
2023/08/20 11:01:51;;;;;;;4.95;0.90;;;;;;;25.39;54.38;101139.25;4908468;29;20063;-96
2023/08/20 11:04:20;;;;;;;6.10;1.57;;;;;;;25.71;52.22;101132.22;4894466;29;20052;-96
2023/08/20 11:06:46;;;;;;;4.53;0.88;;;;;;;26.31;50.24;101136.09;4895509;29;20420;-96
2023/08/20 11:09:12;;;;;;;6.35;1.10;;;;;;;26.05;51.27;101137.22;4895631;29;20128;-96
2023/08/20 11:11:40;;;;;;;6.13;1.00;;;;;;;26.20;52.00;101124.09;4895424;29;20542;-95
2023/08/20 11:14:07;;;;;;;3.97;0.80;;;;;;;25.98;52.31;101123.88;4891274;29;20032;-96
2023/08/20 11:16:38;;;;;;;3.42;0.98;;;;;;;26.62;53.60;101120.22;4892274;29;20120;-96
2023/08/20 11:19:10;;;;;;;5.20;0.90;;;;;;;26.69;49.86;101121.16;4893798;29;20021;-94
2023/08/20 11:21:38;;;;;;;7.43;1.80;;;;;;;26.67;48.75;101109.91;4895625;29;20036;-95